createdAt,value
2023-03-31T00:01:43.095Z,99905.06
2023-03-31T00:04:13.360Z,99908.44
2023-03-31T00:06:42.022Z,99904.63
2023-03-31T00:09:21.989Z,99898.91
2023-03-31T00:11:49.739Z,99908.56
2023-03-31T00:14:18.028Z,99899.31
2023-03-31T00:16:45.368Z,99899.75
2023-03-31T00:19:18.415Z,99891.91
2023-03-31T00:21:46.186Z,99900.22
2023-03-31T00:24:14.389Z,99891.50
2023-03-31T00:26:40.869Z,99887.72
2023-03-31T00:29:09.613Z,99886.16
2023-03-31T00:31:36.418Z,99887.31
2023-03-31T00:34:02.925Z,99881.66
2023-03-31T00:36:29.404Z,99879.91
2023-03-31T00:39:09.570Z,99880.56
2023-03-31T00:41:39.227Z,99882.31
2023-03-31T00:44:08.644Z,99884.50
2023-03-31T00:46:44.017Z,99882.66
2023-03-31T00:49:20.915Z,99869.53
2023-03-31T00:51:49.689Z,99880.59
2023-03-31T00:54:19.480Z,99872.25
2023-03-31T00:56:49.253Z,99864.41
2023-03-31T00:59:16.442Z,99862.38
2023-03-31T01:01:48.009Z,99868.28
2023-03-31T01:04:14.942Z,99857.63
2023-03-31T01:07:25.721Z,99857.63
2023-03-31T01:09:55.072Z,99856.13
2023-03-31T01:12:22.668Z,99844.25
2023-03-31T01:14:50.747Z,99840.75
2023-03-31T01:17:21.753Z,99836.88
2023-03-31T01:19:56.716Z,99837.53
2023-03-31T01:22:45.875Z,99837.88
2023-03-31T01:25:43.335Z,99825.16
2023-03-31T01:28:29.128Z,99828.25
2023-03-31T01:30:58.716Z,99836.09
2023-03-31T01:33:37.582Z,99826.13
2023-03-31T01:36:15.913Z,99826.13
2023-03-31T01:38:57.534Z,99826.28
2023-03-31T01:41:52.674Z,99817.72
2023-03-31T01:44:56.327Z,99812.91
2023-03-31T01:47:34.626Z,99814.75
2023-03-31T01:50:06.760Z,99808.59
2023-03-31T01:52:47.440Z,99804.41
2023-03-31T01:55:38.917Z,99807.59
2023-03-31T01:58:35.234Z,99803.56
2023-03-31T02:01:08.608Z,99804.94
2023-03-31T02:03:45.913Z,99801.56
2023-03-31T02:06:18.257Z,99794.41
2023-03-31T02:08:50.455Z,99795.88
2023-03-31T02:11:17.092Z,99786.06
2023-03-31T02:13:47.691Z,99782.56
2023-03-31T02:16:20.862Z,99788.56
2023-03-31T02:18:49.987Z,99784.41
2023-03-31T02:21:17.272Z,99780.06
2023-03-31T02:23:45.380Z,99786.06
2023-03-31T02:26:16.030Z,99778.91
2023-03-31T02:28:43.103Z,99776.41
2023-03-31T02:31:24.621Z,99772.59
2023-03-31T02:33:51.204Z,99770.47
2023-03-31T02:36:18.423Z,99762.34
2023-03-31T02:39:14.951Z,99765.66
2023-03-31T02:41:42.899Z,99761.34
2023-03-31T02:44:11.134Z,99753.34
2023-03-31T02:46:38.433Z,99760.88
2023-03-31T02:49:09.536Z,99763.41
2023-03-31T02:51:52.149Z,99754.41
2023-03-31T02:54:36.084Z,99744.06
2023-03-31T02:57:15.989Z,99741.28
2023-03-31T03:00:18.096Z,99742.78
2023-03-31T03:03:03.517Z,99736.56
2023-03-31T03:05:45.754Z,99731.47
2023-03-31T03:08:50.264Z,99736.47
2023-03-31T03:11:23.944Z,99737.63
2023-03-31T03:13:55.234Z,99737.44
2023-03-31T03:16:27.425Z,99729.09
2023-03-31T03:19:04.871Z,99732.75
2023-03-31T03:21:31.963Z,99727.44
2023-03-31T03:23:59.666Z,99722.25
2023-03-31T03:26:28.208Z,99722.78
2023-03-31T03:28:56.544Z,99720.59
2023-03-31T03:31:26.068Z,99713.66
2023-03-31T03:33:53.633Z,99705.06
2023-03-31T03:36:20.250Z,99705.66
2023-03-31T03:38:46.717Z,99697.00
2023-03-31T03:41:13.218Z,99695.53
2023-03-31T03:43:39.680Z,99697.38
2023-03-31T03:46:06.215Z,99691.22
2023-03-31T03:48:32.889Z,99696.25
2023-03-31T03:51:01.008Z,99699.22
2023-03-31T03:53:27.900Z,99688.03
2023-03-31T03:55:54.437Z,99678.22
2023-03-31T03:58:21.036Z,99677.91
2023-03-31T04:00:48.056Z,99683.22
2023-03-31T04:03:15.221Z,99679.25
2023-03-31T04:05:42.562Z,99679.56
2023-03-31T04:08:09.094Z,99676.22
2023-03-31T04:10:36.012Z,99674.03
2023-03-31T04:13:02.479Z,99670.22
2023-03-31T04:15:29.100Z,99672.41
2023-03-31T04:17:57.953Z,99668.41
2023-03-31T04:20:27.969Z,99670.22
2023-03-31T04:22:54.730Z,99664.69
2023-03-31T04:25:22.706Z,99654.34
2023-03-31T04:27:54.580Z,99655.03
2023-03-31T04:30:23.054Z,99647.50
2023-03-31T04:32:55.412Z,99652.53
2023-03-31T04:35:23.612Z,99644.22
2023-03-31T04:37:52.534Z,99645.22
2023-03-31T04:40:19.102Z,99645.53
2023-03-31T04:42:45.706Z,99640.22
2023-03-31T04:45:12.804Z,99633.53
2023-03-31T04:47:39.506Z,99629.88
2023-03-31T04:50:06.814Z,99634.88
2023-03-31T04:52:33.299Z,99632.19
2023-03-31T04:54:59.778Z,99629.88
2023-03-31T04:57:26.289Z,99617.91
2023-03-31T04:59:52.829Z,99614.94
2023-03-31T05:02:25.203Z,99615.25
2023-03-31T05:04:52.352Z,99613.91
2023-03-31T05:07:19.747Z,99609.41
2023-03-31T05:09:47.007Z,99602.47
2023-03-31T05:12:13.583Z,99592.31
2023-03-31T05:14:40.269Z,99594.59
2023-03-31T05:17:06.895Z,99598.25
2023-03-31T05:19:33.398Z,99589.91
2023-03-31T05:22:00.086Z,99596.38
2023-03-31T05:24:28.371Z,99590.34
2023-03-31T05:26:55.895Z,99590.22
2023-03-31T05:29:22.334Z,99583.91
2023-03-31T05:31:49.121Z,99586.28
2023-03-31T05:34:16.269Z,99578.31
2023-03-31T05:36:43.497Z,99572.69
2023-03-31T05:41:47.057Z,99585.66
2023-03-31T05:44:13.704Z,99579.13
2023-03-31T05:46:41.377Z,99577.50
2023-03-31T05:49:08.434Z,99575.84
2023-03-31T05:51:34.992Z,99563.03
2023-03-31T05:54:01.474Z,99565.13
2023-03-31T05:56:28.044Z,99554.88
2023-03-31T05:58:54.585Z,99544.22
2023-03-31T06:01:22.967Z,99554.88
2023-03-31T06:03:49.899Z,99553.72
2023-03-31T06:06:19.471Z,99549.47
2023-03-31T06:08:47.245Z,99543.41
2023-03-31T06:11:19.535Z,99543.00
2023-03-31T06:13:46.416Z,99530.56
2023-03-31T06:16:14.667Z,99527.22
2023-03-31T06:18:41.924Z,99529.66
2023-03-31T06:21:12.587Z,99523.38
2023-03-31T06:23:39.211Z,99517.41
2023-03-31T06:26:08.398Z,99522.44
2023-03-31T06:28:36.292Z,99513.59
2023-03-31T06:31:08.928Z,99507.44
2023-03-31T06:33:36.241Z,99502.28
2023-03-31T06:36:04.300Z,99505.09
2023-03-31T06:38:31.345Z,99509.91
2023-03-31T06:40:57.876Z,99510.66
2023-03-31T06:43:24.693Z,99506.59
2023-03-31T06:45:54.050Z,99504.03
2023-03-31T06:48:21.212Z,99497.25
2023-03-31T06:50:47.694Z,99500.59
2023-03-31T06:53:14.270Z,99498.19
2023-03-31T06:55:40.931Z,99491.97
2023-03-31T06:58:07.463Z,99495.50
2023-03-31T07:00:33.993Z,99495.19
2023-03-31T07:03:01.329Z,99494.50
2023-03-31T07:05:29.074Z,99486.41
2023-03-31T07:07:56.527Z,99486.50
2023-03-31T07:10:24.150Z,99479.56
2023-03-31T07:12:50.923Z,99478.72
2023-03-31T07:15:17.551Z,99480.03
2023-03-31T07:17:44.210Z,99467.09
2023-03-31T07:20:12.800Z,99457.50
2023-03-31T07:22:41.428Z,99465.97
2023-03-31T07:25:12.696Z,99473.59
2023-03-31T07:27:39.700Z,99467.03
2023-03-31T07:30:08.560Z,99456.75
2023-03-31T07:32:39.572Z,99459.38
2023-03-31T07:35:10.007Z,99452.16
2023-03-31T07:37:43.669Z,99445.59
2023-03-31T07:40:19.840Z,99450.06
2023-03-31T07:42:49.287Z,99446.09
2023-03-31T07:45:17.047Z,99444.28
2023-03-31T07:47:46.393Z,99440.47
2023-03-31T07:50:14.345Z,99446.75
2023-03-31T07:52:40.972Z,99443.34
2023-03-31T07:55:08.977Z,99435.38
2023-03-31T07:57:36.777Z,99432.44
2023-03-31T08:00:07.798Z,99429.31
2023-03-31T08:02:34.855Z,99426.41
2023-03-31T08:05:01.549Z,99417.31
2023-03-31T08:07:30.876Z,99420.66
2023-03-31T08:09:58.717Z,99416.97
2023-03-31T08:12:25.456Z,99405.16
2023-03-31T08:14:52.027Z,99410.34
2023-03-31T08:17:18.585Z,99408.13
2023-03-31T08:19:45.275Z,99408.31
2023-03-31T08:22:11.689Z,99405.78
2023-03-31T08:24:38.159Z,99403.25
2023-03-31T08:27:04.746Z,99403.34
2023-03-31T08:29:31.203Z,99399.66
2023-03-31T08:31:57.757Z,99404.91
2023-03-31T08:34:24.273Z,99393.53
2023-03-31T08:36:50.796Z,99389.00
2023-03-31T08:39:17.287Z,99382.13
2023-03-31T08:41:56.177Z,99379.13
2023-03-31T08:44:38.743Z,99366.78
2023-03-31T08:47:10.855Z,99362.25
2023-03-31T08:49:52.743Z,99359.47
2023-03-31T08:52:27.085Z,99356.63
2023-03-31T08:54:58.410Z,99350.66
2023-03-31T08:57:54.391Z,99353.31
2023-03-31T09:00:21.573Z,99351.22
2023-03-31T09:03:00.906Z,99357.34
2023-03-31T09:06:01.120Z,99351.22
2023-03-31T09:08:33.664Z,99346.13
2023-03-31T09:11:27.319Z,99342.81
2023-03-31T09:14:24.416Z,99342.66
2023-03-31T09:17:27.827Z,99333.56
2023-03-31T09:19:58.854Z,99339.56
2023-03-31T09:22:33.613Z,99339.38
2023-03-31T09:25:06.233Z,99329.44
2023-03-31T09:27:37.178Z,99325.88
2023-03-31T09:30:10.035Z,99324.25
2023-03-31T09:32:38.187Z,99318.03
2023-03-31T09:35:23.056Z,99307.38
2023-03-31T09:37:50.631Z,99299.97
2023-03-31T09:40:20.730Z,99302.84
2023-03-31T09:42:54.181Z,99293.00
2023-03-31T09:45:21.073Z,99290.09
2023-03-31T09:47:52.532Z,99276.41
2023-03-31T09:50:19.199Z,99281.38
2023-03-31T09:53:00.733Z,99270.47
2023-03-31T09:55:53.201Z,99273.94
2023-03-31T09:58:21.476Z,99265.09
2023-03-31T10:01:17.415Z,99259.66
2023-03-31T10:03:50.090Z,99257.25
2023-03-31T10:06:18.151Z,99261.03
2023-03-31T10:09:01.578Z,99254.44
2023-03-31T10:11:28.680Z,99257.31
2023-03-31T10:14:07.093Z,99250.53
2023-03-31T10:16:42.746Z,99239.97
2023-03-31T10:19:17.744Z,99239.44
2023-03-31T10:21:46.867Z,99244.47
2023-03-31T10:24:18.767Z,99232.91
2023-03-31T10:26:49.217Z,99223.94
2023-03-31T10:29:25.624Z,99234.69
2023-03-31T10:31:52.286Z,99227.28
2023-03-31T10:34:19.347Z,99220.16
2023-03-31T10:36:48.533Z,99219.69
2023-03-31T10:39:19.110Z,99218.13
2023-03-31T10:41:56.133Z,99221.34
2023-03-31T10:44:32.512Z,99221.59
2023-03-31T10:47:13.463Z,99211.53
2023-03-31T10:49:41.836Z,99219.31
2023-03-31T10:52:27.234Z,99217.59
2023-03-31T10:54:58.599Z,99213.34
2023-03-31T10:57:36.963Z,99207.97
2023-03-31T11:00:53.425Z,99204.25
2023-03-31T11:03:52.101Z,99191.91
2023-03-31T11:06:32.037Z,99190.41
2023-03-31T11:09:30.735Z,99192.69
2023-03-31T11:12:27.074Z,99192.91
2023-03-31T11:15:22.325Z,99186.81
2023-03-31T11:17:59.607Z,99177.47
2023-03-31T11:20:47.511Z,99175.19
2023-03-31T11:23:19.999Z,99171.88
2023-03-31T11:26:07.705Z,99161.94
2023-03-31T11:28:58.761Z,99152.19
2023-03-31T11:31:48.761Z,99145.28
2023-03-31T11:34:48.880Z,99140.41
2023-03-31T11:37:45.903Z,99133.72
2023-03-31T11:40:34.224Z,99132.72
2023-03-31T11:43:12.862Z,99121.34
2023-03-31T11:45:51.697Z,99117.63
2023-03-31T11:48:31.431Z,99119.75
2023-03-31T11:51:01.402Z,99102.53
2023-03-31T11:53:33.838Z,99106.19
2023-03-31T11:56:02.549Z,99103.22
2023-03-31T11:58:40.582Z,99109.44
2023-03-31T12:01:16.434Z,99110.88
2023-03-31T12:04:09.057Z,99105.25
2023-03-31T12:06:40.171Z,99101.53
2023-03-31T12:09:51.398Z,99095.84
2023-03-31T12:12:24.773Z,99080.34
2023-03-31T12:15:12.804Z,99083.84
2023-03-31T12:17:42.068Z,99074.00
2023-03-31T12:20:26.065Z,99067.09
2023-03-31T12:22:54.489Z,99069.56
2023-03-31T12:25:31.290Z,99060.25
2023-03-31T12:27:59.923Z,99063.78
2023-03-31T12:30:37.538Z,99058.06
2023-03-31T12:33:20.144Z,99058.72
2023-03-31T12:35:49.532Z,99063.41
2023-03-31T12:38:41.299Z,99059.19
2023-03-31T12:41:20.944Z,99063.53
2023-03-31T12:44:05.509Z,99060.25
2023-03-31T12:46:59.084Z,99059.63
2023-03-31T12:49:51.754Z,99069.84
2023-03-31T12:52:28.407Z,99063.53
2023-03-31T12:55:00.324Z,99067.69
2023-03-31T12:57:27.564Z,99060.75
2023-03-31T13:00:08.384Z,99060.59
2023-03-31T13:02:34.998Z,99061.41
2023-03-31T13:05:37.298Z,99052.59
2023-03-31T13:08:42.150Z,99048.88
2023-03-31T13:11:08.900Z,99044.16
2023-03-31T13:13:35.775Z,99045.94
2023-03-31T13:16:02.771Z,99040.34
2023-03-31T13:18:34.103Z,99042.63
2023-03-31T13:23:35.585Z,99041.19
2023-03-31T13:26:02.654Z,99032.22
2023-03-31T13:28:39.956Z,99035.22
2023-03-31T13:31:15.190Z,99034.88
2023-03-31T13:33:57.397Z,99026.75
2023-03-31T13:36:44.004Z,99018.78
2023-03-31T13:39:28.044Z,99020.75
2023-03-31T13:42:00.873Z,99014.34
2023-03-31T13:45:04.595Z,99012.59
2023-03-31T13:47:37.129Z,99023.06
2023-03-31T13:50:22.490Z,99021.19
2023-03-31T13:53:07.678Z,99017.50
2023-03-31T13:55:46.645Z,99023.00
2023-03-31T13:58:45.661Z,99016.06
2023-03-31T14:01:23.155Z,99022.38
2023-03-31T14:04:02.785Z,99025.13
2023-03-31T14:06:41.669Z,99026.19
2023-03-31T14:09:20.892Z,99019.34
2023-03-31T14:11:47.497Z,99020.63
2023-03-31T14:14:16.469Z,99022.50
2023-03-31T14:16:48.525Z,99020.13
2023-03-31T14:19:36.793Z,99015.88
2023-03-31T14:22:08.458Z,99018.41
2023-03-31T14:24:53.585Z,99019.94
2023-03-31T14:27:44.810Z,99025.09
2023-03-31T14:30:17.795Z,99015.47
2023-03-31T14:32:48.934Z,99016.34
2023-03-31T14:35:30.260Z,99029.41
2023-03-31T14:37:57.455Z,99009.16
2023-03-31T14:40:24.848Z,99013.41
2023-03-31T14:42:51.448Z,99015.97
2023-03-31T14:45:26.142Z,99007.34
2023-03-31T14:47:57.358Z,99010.16
2023-03-31T14:50:31.452Z,99005.41
2023-03-31T14:52:58.023Z,99000.53
2023-03-31T14:55:35.581Z,98998.69
2023-03-31T14:58:14.637Z,99004.47
2023-03-31T15:00:41.613Z,98996.13
2023-03-31T15:03:13.789Z,98999.66
2023-03-31T15:05:42.835Z,98997.84
2023-03-31T15:08:18.296Z,98994.94
2023-03-31T15:10:54.017Z,98999.25
2023-03-31T15:13:31.662Z,98987.53
2023-03-31T15:15:58.152Z,99001.44
2023-03-31T15:18:27.342Z,98995.75
2023-03-31T15:20:53.824Z,98995.66
2023-03-31T15:23:27.407Z,98990.41
2023-03-31T15:26:02.581Z,98993.44
2023-03-31T15:28:36.421Z,99000.56
2023-03-31T15:31:10.134Z,98997.91
2023-03-31T15:36:30.292Z,98980.00
2023-03-31T15:38:59.031Z,99001.44
2023-03-31T15:41:30.793Z,98988.97
2023-03-31T15:44:27.322Z,98990.19
2023-03-31T15:47:02.143Z,98983.50
2023-03-31T15:49:29.532Z,98982.22
2023-03-31T15:52:02.254Z,98979.69
2023-03-31T15:54:31.447Z,98973.91
2023-03-31T15:57:01.800Z,98979.41
2023-03-31T15:59:41.568Z,98978.28
2023-03-31T16:02:20.651Z,98978.41
2023-03-31T16:04:51.390Z,98968.84
2023-03-31T16:07:24.679Z,98974.44
2023-03-31T16:10:19.803Z,98974.19
2023-03-31T16:13:03.624Z,98969.47
2023-03-31T16:15:47.612Z,98971.63
2023-03-31T16:18:22.781Z,98979.22
2023-03-31T16:20:56.068Z,98977.00
2023-03-31T16:23:28.785Z,98975.00
2023-03-31T16:25:56.066Z,98969.69
2023-03-31T16:28:29.511Z,98982.66
2023-03-31T16:30:56.035Z,98966.50
2023-03-31T16:33:24.368Z,98972.88
2023-03-31T16:35:53.782Z,98979.41
2023-03-31T16:38:22.341Z,98977.22
2023-03-31T16:40:51.765Z,98981.97
2023-03-31T16:43:21.502Z,98982.72
2023-03-31T16:45:50.376Z,98974.25
2023-03-31T16:48:19.464Z,98969.16
2023-03-31T16:50:47.625Z,98976.56
2023-03-31T16:53:16.413Z,98984.16
2023-03-31T16:55:43.355Z,98976.81
2023-03-31T16:58:09.879Z,98975.16
2023-03-31T17:00:37.070Z,98986.28
2023-03-31T17:03:05.070Z,98987.09
2023-03-31T17:05:33.958Z,98977.53
2023-03-31T17:08:00.789Z,98980.59
2023-03-31T17:10:27.367Z,98985.59
2023-03-31T17:12:53.831Z,98985.78
2023-03-31T17:15:20.498Z,98986.13
2023-03-31T17:17:47.735Z,98987.78
2023-03-31T17:20:14.261Z,98980.03
2023-03-31T17:22:40.742Z,98987.44
2023-03-31T17:25:08.020Z,98988.25
2023-03-31T17:27:34.991Z,98988.59
2023-03-31T17:32:31.019Z,98983.94
2023-03-31T17:34:57.483Z,98982.44
2023-03-31T17:37:24.130Z,98986.75
2023-03-31T17:39:51.133Z,98984.41
2023-03-31T17:42:19.147Z,98977.44
2023-03-31T17:44:47.739Z,98974.41
2023-03-31T17:47:15.469Z,98967.25
2023-03-31T17:49:42.438Z,98975.16
2023-03-31T17:52:08.939Z,98978.72
2023-03-31T17:54:35.573Z,98978.72
2023-03-31T17:57:02.148Z,98991.78
2023-03-31T17:59:28.850Z,98986.09
2023-03-31T18:01:55.460Z,98993.88
2023-03-31T18:04:22.368Z,98990.63
2023-03-31T18:06:50.301Z,98995.31
2023-03-31T18:09:17.161Z,98990.44
2023-03-31T18:11:44.231Z,98991.28
2023-03-31T18:14:10.674Z,98993.66
2023-03-31T18:16:37.648Z,98983.47
2023-03-31T18:19:04.554Z,98991.28
2023-03-31T18:21:31.062Z,98986.69
2023-03-31T18:23:57.631Z,98990.63
2023-03-31T18:26:26.002Z,98984.28
2023-03-31T18:28:53.153Z,98985.06
2023-03-31T18:31:21.364Z,98980.72
2023-03-31T18:33:48.425Z,98985.06
2023-03-31T18:36:20.120Z,98988.78
2023-03-31T18:38:48.224Z,98991.03
2023-03-31T18:41:15.755Z,98989.38
2023-03-31T18:43:42.297Z,98990.63
2023-03-31T18:46:10.766Z,98992.63
2023-03-31T18:48:38.411Z,98997.44
2023-03-31T18:51:04.950Z,98996.97
2023-03-31T18:53:31.620Z,98997.28
2023-03-31T18:55:59.673Z,98995.66
2023-03-31T18:58:30.039Z,98991.63
2023-03-31T19:00:57.819Z,98991.28
2023-03-31T19:03:26.545Z,98997.63
2023-03-31T19:06:14.052Z,98986.28
2023-03-31T19:08:40.536Z,98995.50
2023-03-31T19:11:10.645Z,99003.53
2023-03-31T19:13:40.162Z,99006.75
2023-03-31T19:16:06.871Z,99006.53
2023-03-31T19:18:33.427Z,99002.31
2023-03-31T19:21:00.806Z,99006.06
2023-03-31T19:23:27.658Z,99009.00
2023-03-31T19:25:55.422Z,99011.28
2023-03-31T19:28:23.174Z,99004.66
2023-03-31T19:30:50.962Z,99010.81
2023-03-31T19:33:17.701Z,99007.50
2023-03-31T19:35:47.459Z,99004.00
2023-03-31T19:38:15.048Z,99006.19
2023-03-31T19:40:42.022Z,99014.22
2023-03-31T19:43:21.552Z,99009.16
2023-03-31T19:45:49.601Z,99007.16
2023-03-31T19:48:17.390Z,99007.84
2023-03-31T19:50:51.263Z,99009.16
2023-03-31T19:53:18.462Z,99002.31
2023-03-31T19:55:44.917Z,98998.41
2023-03-31T19:58:11.515Z,99011.78
2023-03-31T20:00:39.182Z,99008.75
2023-03-31T20:03:06.148Z,99003.72
2023-03-31T20:05:33.350Z,99012.19
2023-03-31T20:07:59.763Z,99001.47
2023-03-31T20:10:26.354Z,99011.13
2023-03-31T20:12:52.903Z,99009.38
2023-03-31T20:15:19.428Z,99015.91
2023-03-31T20:17:46.505Z,99008.19
2023-03-31T20:20:13.273Z,99006.69
2023-03-31T20:22:41.262Z,99002.22
2023-03-31T20:25:08.182Z,99000.69
2023-03-31T20:27:34.810Z,99005.25
2023-03-31T20:30:01.316Z,99006.75
2023-03-31T20:32:27.841Z,99003.16
2023-03-31T20:34:54.699Z,98999.00
2023-03-31T20:37:21.140Z,99003.31
2023-03-31T20:39:48.485Z,98996.50
2023-03-31T20:42:15.157Z,98996.66
2023-03-31T20:44:41.781Z,99000.66
2023-03-31T20:47:08.337Z,98999.84
2023-03-31T20:49:34.900Z,98994.72
2023-03-31T20:52:01.455Z,98997.91
2023-03-31T20:54:28.050Z,98993.53
2023-03-31T20:56:54.536Z,98991.84
2023-03-31T20:59:22.145Z,98993.75
2023-03-31T21:01:49.660Z,98988.44
2023-03-31T21:04:16.958Z,98997.56
2023-03-31T21:06:46.096Z,99001.69
2023-03-31T21:09:14.577Z,99002.41
2023-03-31T21:11:41.697Z,99004.09
2023-03-31T21:14:13.152Z,99007.59
2023-03-31T21:16:40.276Z,99010.75
2023-03-31T21:19:06.783Z,99014.22
2023-03-31T21:21:35.214Z,99015.38
2023-03-31T21:24:02.097Z,99009.91
2023-03-31T21:26:28.596Z,99015.03
2023-03-31T21:28:55.321Z,99017.66
2023-03-31T21:31:24.659Z,99022.88
2023-03-31T21:33:52.204Z,99018.38
2023-03-31T21:36:24.243Z,99012.22
2023-03-31T21:38:54.275Z,99019.72
2023-03-31T21:41:24.428Z,99022.22
2023-03-31T21:43:51.317Z,99016.75
2023-03-31T21:46:20.086Z,99022.88
2023-03-31T21:48:48.780Z,99021.72
2023-03-31T21:51:17.033Z,99017.41
2023-03-31T21:53:43.695Z,99026.59
2023-03-31T21:56:10.187Z,99028.88
2023-03-31T21:58:36.798Z,99020.09
2023-03-31T22:01:04.489Z,99029.03
2023-03-31T22:03:34.075Z,99015.78
2023-03-31T22:06:07.290Z,99026.94
2023-03-31T22:08:36.470Z,99026.75
2023-03-31T22:11:05.083Z,99029.41
2023-03-31T22:13:31.685Z,99024.78
2023-03-31T22:16:00.124Z,99024.81
2023-03-31T22:18:27.275Z,99027.47
2023-03-31T22:20:53.795Z,99023.50
2023-03-31T22:23:22.871Z,99024.78
2023-03-31T22:25:49.463Z,99030.09
2023-03-31T22:28:16.931Z,99022.13
2023-03-31T22:30:44.040Z,99027.81
2023-03-31T22:33:10.521Z,99033.94
2023-03-31T22:35:37.052Z,99039.41
2023-03-31T22:38:05.071Z,99036.25
2023-03-31T22:40:33.676Z,99035.06
2023-03-31T22:43:01.008Z,99038.59
2023-03-31T22:45:27.604Z,99034.94
2023-03-31T22:47:54.390Z,99045.75
2023-03-31T22:50:21.068Z,99035.09
2023-03-31T22:52:47.532Z,99039.13
2023-03-31T22:55:14.019Z,99038.28
2023-03-31T22:57:40.653Z,99040.94
2023-03-31T23:00:07.761Z,99041.78
2023-03-31T23:02:34.291Z,99043.06
2023-03-31T23:05:00.799Z,99044.75
2023-03-31T23:07:28.061Z,99043.25
2023-03-31T23:09:54.479Z,99046.06
2023-03-31T23:12:21.259Z,99046.06
2023-03-31T23:14:47.725Z,99040.25
2023-03-31T23:17:14.254Z,99058.06
2023-03-31T23:19:40.787Z,99044.94
2023-03-31T23:22:07.371Z,99046.88
2023-03-31T23:24:33.906Z,99052.06
2023-03-31T23:27:00.606Z,99048.53
2023-03-31T23:29:28.014Z,99052.03
2023-03-31T23:31:54.567Z,99046.22
2023-03-31T23:34:21.302Z,99052.50
2023-03-31T23:36:47.784Z,99046.03
2023-03-31T23:39:14.410Z,99048.72
2023-03-31T23:41:41.116Z,99041.38
2023-03-31T23:44:07.741Z,99045.03
2023-03-31T23:46:34.318Z,99037.84
2023-03-31T23:49:03.051Z,99040.22
2023-03-31T23:51:29.655Z,99046.22
2023-03-31T23:53:56.299Z,99050.88
2023-03-31T23:56:22.969Z,99049.44
2023-03-31T23:58:49.387Z,99052.22
